Latest Weather Observations for Moranbah Airport

IDQ60801

Issued at 6:02 am EST Saturday 30 May 2015 (issued every 30 minutes, with the page automatically refreshed every 10 minutes)

About weather observations | Map of weather stations | Latest weather observations for QLD | Other Formats
Station Details ID: 034035 Name: MORANBAH AIRPORT Lat: -22.06 Lon: 148.08 Height: 232.2 m
Data from the previous 72 hours. | See also: Recent months at Moranbah Airport
Date/Time
EST
Temp
°C
App
Temp
°C
Dew
Point
Rel
Hum
%
Delta-T
°C
Wind Press
QNH
hPa
Press
MSL
hPa
Rain
since 9 am
mm
Dir
 
Spd
km/h
Gust
km/h
Spd
kts
Gust
kts
30/06:00am 15.6 17.3 15.1 97 0.3 CALM 0 7 0 4 1021.7 1021.0 0.0
30/05:30am 15.3 14.8 14.8 97 0.3 S 11 13 6 7 1021.7 1021.0 0.0
30/05:00am 14.0 13.8 13.1 94 0.5 SSE 6 7 3 4 1021.2 1020.6 0.0
30/04:30am 15.5 15.4 14.9 96 0.3 SSE 9 9 5 5 1021.1 1020.5 0.0
30/04:00am 15.6 15.9 15.0 96 0.3 SSE 7 9 4 5 1021.1 1020.5 0.0
30/03:30am 15.6 15.8 14.8 95 0.5 ESE 7 9 4 5 1021.0 1020.4 0.0
30/03:00am 15.6 14.6 14.6 94 0.6 SE 13 13 7 7 1021.0 1020.4 0.0
30/02:30am 16.4 15.0 15.6 95 0.5 SE 17 19 9 10 1021.0 1020.4 0.0
30/02:00am 16.1 15.3 15.1 94 0.6 SE 13 15 7 8 1020.9 1020.2 0.0
30/01:30am 15.7 15.4 14.4 92 0.7 SSE 9 11 5 6 1021.5 1020.8 0.0
30/01:00am 15.7 14.6 14.2 91 0.9 SE 13 15 7 8 1021.8 1021.1 0.0
30/12:30am 16.4 15.7 14.4 88 1.2 SE 11 13 6 7 1021.9 1021.2 0.0
30/12:00am 17.4 16.9 15.0 86 1.4 ESE 11 13 6 7 1021.8 1021.1 0.0
 
Date/Time
EST
Temp
°C
App
Temp
°C
Dew
Point
Rel
Hum
%
Delta-T
°C
Wind Press
QNH
hPa
Press
MSL
hPa
Rain
since 9 am
mm
Dir
 
Spd
km/h
Gust
km/h
Spd
kts
Gust
kts
29/11:30pm 18.1 17.5 15.7 86 1.4 ESE 13 17 7 9 1022.1 1021.4 0.0
29/11:00pm 17.9 17.4 14.8 82 1.8 ENE 11 13 6 7 1022.3 1021.6 0.0
29/10:30pm 18.6 18.3 15.5 82 1.8 NE 11 13 6 7 1022.4 1021.7 0.0
29/10:00pm 18.3 18.1 14.8 80 2.0 NE 9 15 5 8 1022.5 1021.8 0.0
29/09:30pm 19.4 19.4 15.3 77 2.4 ENE 9 11 5 6 1022.5 1021.8 0.0
29/09:00pm 19.8 19.5 15.4 76 2.6 ENE 11 15 6 8 1022.5 1021.8 0.0
29/08:30pm 20.2 19.8 15.2 73 3.0 NE 11 13 6 7 1022.3 1021.6 0.0
29/08:00pm 21.2 20.2 15.7 71 3.3 ENE 15 20 8 11 1022.2 1021.5 0.0
29/07:30pm 21.9 20.7 16.0 69 3.6 ENE 17 24 9 13 1021.9 1021.2 0.0
29/07:00pm 22.3 20.9 15.6 66 4.0 ENE 17 24 9 13 1021.5 1020.8 0.0
29/06:30pm 23.3 21.5 15.9 63 4.5 ENE 20 28 11 15 1021.0 1020.4 0.0
29/06:00pm 24.8 22.3 14.0 51 6.4 ESE 20 30 11 16 1020.4 1019.7 0.0
29/05:30pm 26.1 23.4 13.6 46 7.4 ESE 20 28 11 15 1020.1 1019.4 0.0
29/05:00pm 26.8 24.0 13.2 43 8.0 E 20 26 11 14 1019.6 1018.9 0.0
29/04:30pm 26.8 24.8 12.8 42 8.2 ENE 15 20 8 11 1019.6 1018.9 0.0
29/04:00pm 28.1 25.3 13.2 39 8.9 SE 20 26 11 14 1019.3 1018.6 0.0
29/03:30pm 27.8 24.7 13.3 40 8.6 ESE 22 37 12 20 1019.1 1018.4 0.0
29/03:00pm 27.8 25.4 12.6 39 8.9 E 17 26 9 14 1019.1 1018.4 0.0
29/02:30pm 27.9 25.4 13.4 40 8.7 ENE 19 28 10 15 1019.2 1018.5 0.0
29/02:00pm 27.8 25.6 13.3 40 8.6 E 17 28 9 15 1019.5 1018.8 0.0
29/01:30pm 27.6 25.2 13.9 43 8.2 ENE 19 32 10 17 1020.0 1019.3 0.0
29/01:00pm 26.8 23.7 14.5 46 7.4 E 24 37 13 20 1020.3 1019.6 0.0
29/12:30pm 26.6 24.2 14.4 47 7.4 E 20 33 11 18 1020.9 1020.2 0.0
29/12:00pm 25.6 23.2 14.4 50 6.7 E 20 35 11 19 1021.6 1020.9 0.0
29/11:30am 25.3 22.5 14.4 50 6.5 E 22 33 12 18 1022.0 1021.3 0.0
29/11:00am 24.8 23.0 16.0 58 5.4 ESE 20 30 11 16 1022.6 1021.9 0.0
29/10:30am 24.0 22.0 15.5 59 5.2 ESE 20 26 11 14 1022.8 1022.1 0.0
29/10:00am 23.4 21.8 16.4 64 4.3 ESE 20 28 11 15 1023.3 1022.6 0.0
29/09:30am 21.9 20.2 16.2 70 3.5 ESE 20 26 11 14 1023.6 1022.9 0.0
29/09:00am 20.5 18.8 16.3 77 2.5 ESE 20 24 11 13 1023.6 1022.9 0.0
29/08:30am 18.7 17.6 16.3 86 1.4 ESE 17 20 9 11 1023.4 1022.7 0.0
29/08:02am 16.9 16.5 16.3 96 0.4 SE 13 17 7 9 1023.4 1022.7 0.0
29/08:00am 16.8 16.8 16.3 97 0.3 ESE 11 15 6 8 1023.4 1022.7 0.0
29/07:56am 16.6 16.9 16.1 97 0.3 ESE 9 13 5 7 1023.3 1022.6 0.0
29/07:37am 15.0 15.1 14.4 96 0.3 E 7 9 4 5 1023.1 1022.4 0.0
29/07:30am 14.7 14.7 14.1 96 0.3 E 7 9 4 5 1023.1 1022.4 0.0
29/07:24am 14.7 14.7 14.2 97 0.3 E 7 9 4 5 1023.0 1022.3 0.0
29/07:00am 14.1 13.5 13.5 96 0.3 SE 9 11 5 6 1022.7 1022.0 0.0
29/06:30am 14.7 13.9 14.1 96 0.3 SE 11 15 6 8 1022.5 1021.8 0.0
29/06:00am 14.6 13.4 14.0 96 0.3 SSE 13 15 7 8 1022.1 1021.4 0.0
29/05:30am 14.5 14.0 13.7 95 0.5 SSE 9 11 5 6 1022.1 1021.4 0.0
29/05:00am 14.8 14.0 14.0 95 0.5 SSE 11 13 6 7 1021.9 1021.2 0.0
29/04:30am 14.7 13.9 13.9 95 0.5 SSE 11 13 6 7 1021.8 1021.1 0.0
29/04:00am 14.7 13.4 13.7 94 0.6 SSE 13 15 7 8 1021.8 1021.1 0.0
29/03:30am 14.7 13.4 13.6 93 0.6 SSE 13 15 7 8 1021.9 1021.2 0.0
29/03:00am 14.7 14.1 13.6 93 0.6 SSE 9 11 5 6 1022.0 1021.3 0.0
29/02:30am 14.5 13.4 13.2 92 0.7 SSE 11 13 6 7 1022.0 1021.3 0.0
29/02:00am 14.8 13.3 13.2 90 0.9 SSE 13 13 7 7 1022.2 1021.5 0.0
29/01:30am 15.5 13.8 13.7 89 1.0 S 15 17 8 9 1022.4 1021.7 0.0
29/01:00am 15.7 14.9 13.9 89 1.0 SSE 11 13 6 7 1022.3 1021.6 0.0
29/12:30am 15.3 14.2 13.1 87 1.2 SSE 11 11 6 6 1022.3 1021.6 0.0
29/12:00am 15.4 14.6 12.9 85 1.4 SSE 9 11 5 6 1022.4 1021.7 0.0
 
Date/Time
EST
Temp
°C
App
Temp
°C
Dew
Point
Rel
Hum
%
Delta-T
°C
Wind Press
QNH
hPa
Press
MSL
hPa
Rain
since 9 am
mm
Dir
 
Spd
km/h
Gust
km/h
Spd
kts
Gust
kts
28/11:30pm 16.1 15.2 13.6 85 1.4 SE 11 13 6 7 1022.3 1021.6 0.0
28/11:00pm 16.3 15.3 13.4 83 1.6 ESE 11 13 6 7 1022.6 1021.9 0.0
28/10:30pm 16.4 15.2 12.9 80 2.0 SE 11 13 6 7 1022.7 1022.0 0.0
28/10:00pm 18.1 16.8 13.8 76 2.5 ESE 13 15 7 8 1022.6 1021.9 0.0
28/09:30pm 19.4 18.0 14.6 74 2.8 E 15 17 8 9 1022.5 1021.8 0.0
28/09:00pm 20.0 19.0 14.6 71 3.2 E 13 17 7 9 1022.2 1021.5 0.0
28/08:30pm 19.9 19.1 14.0 69 3.4 ENE 11 13 6 7 1022.0 1021.3 0.0
28/08:00pm 20.9 20.2 14.3 66 3.9 E 11 17 6 9 1021.9 1021.2 0.0
28/07:30pm 22.0 20.1 14.1 61 4.7 E 17 20 9 11 1021.2 1020.6 0.0
28/07:00pm 22.8 20.9 13.0 54 5.7 E 15 17 8 9 1020.6 1019.9 0.0
28/06:30pm 23.2 21.6 12.8 52 6.0 E 13 15 7 8 1020.2 1019.5 0.0
28/06:00pm 23.4 21.7 12.4 50 6.3 ESE 13 15 7 8 1019.8 1019.1 0.0
28/05:30pm 24.9 22.9 12.8 47 7.1 E 15 19 8 10 1019.5 1018.8 0.0
28/05:00pm 25.9 23.3 13.1 45 7.5 E 19 24 10 13 1019.2 1018.5 0.0
28/04:30pm 26.9 25.1 13.3 43 8.1 E 15 26 8 14 1019.0 1018.3 0.0
28/04:00pm 27.1 23.6 12.3 39 8.6 ESE 22 30 12 16 1018.9 1018.2 0.0
28/03:30pm 26.6 24.2 12.6 42 8.2 E 17 24 9 13 1018.8 1018.1 0.0
28/03:00pm 27.2 24.8 12.8 41 8.5 E 17 30 9 16 1019.1 1018.4 0.0
28/02:30pm 27.6 25.2 12.8 40 8.7 ESE 17 24 9 13 1019.3 1018.6 0.0
28/02:00pm 27.5 25.7 13.4 41 8.4 E 15 20 8 11 1019.6 1018.9 0.0
28/01:30pm 26.6 24.1 14.0 46 7.6 E 20 30 11 16 1019.9 1019.2 0.0
28/01:00pm 26.5 24.5 13.9 45 7.5 ESE 17 44 9 24 1020.3 1019.6 0.0
28/12:30pm 26.0 24.3 14.8 50 6.8 E 17 28 9 15 1020.8 1020.1 0.0
28/12:00pm 25.6 23.5 14.7 51 6.6 E 19 28 10 15 1021.6 1020.9 0.0
28/11:30am 25.7 23.6 14.8 51 6.6 E 19 32 10 17 1021.9 1021.2 0.0
28/11:00am 24.9 22.9 15.5 56 5.7 E 20 28 11 15 1022.3 1021.6 0.0
28/10:30am 23.6 21.6 15.6 61 4.9 E 20 28 11 15 1022.7 1022.0 0.0
28/10:00am 22.9 21.1 16.0 65 4.2 E 20 24 11 13 1023.0 1022.3 0.0
28/09:30am 21.5 19.7 16.0 71 3.3 E 20 26 11 14 1023.0 1022.3 0.0
28/09:00am 20.3 18.9 15.5 74 2.9 E 17 24 9 13 1023.0 1022.3 0.0
28/08:30am 19.3 18.0 15.8 80 2.1 ESE 17 24 9 13 1022.6 1021.9 0.0
28/08:00am 17.5 16.8 15.5 88 1.2 SE 13 17 7 9 1022.6 1021.9 0.0
28/07:30am 14.3 14.4 13.8 97 0.3 SE 6 9 3 5 1022.3 1021.6 0.0
28/07:00am 12.2 12.3 11.4 95 0.4 NNE 2 7 1 4 1021.9 1021.2 0.0
28/06:30am 11.8 11.3 10.7 93 0.6 SE 4 6 2 3 1021.8 1021.1 0.0
28/06:00am 12.8 11.7 12.0 95 0.4 SE 9 11 5 6 1021.2 1020.6 0.0
28/05:30am 13.5 12.6 12.6 94 0.5 SE 9 9 5 5 1021.0 1020.4 0.0
28/05:00am 13.6 12.7 12.7 94 0.5 SE 9 13 5 7 1020.8 1020.1 0.0
28/04:30am 14.1 13.0 13.1 94 0.6 SE 11 13 6 7 1020.6 1019.9 0.0
28/04:00am 14.4 12.7 13.6 95 0.4 SSE 15 17 8 9 1020.5 1019.8 0.0
28/03:30am 13.9 13.4 12.8 93 0.6 SSE 7 9 4 5 1020.6 1019.9 0.0
28/03:00am 13.9 12.6 12.5 91 0.8 SSE 11 13 6 7 1020.6 1019.9 0.0
28/02:30am 14.1 13.7 12.5 90 0.9 ENE 6 9 3 5 1020.7 1020.0 0.0
28/02:00am 14.2 12.4 12.2 88 1.1 SE 13 13 7 7 1021.1 1020.5 0.0
28/01:30am 14.9 13.6 12.4 85 1.4 SSE 11 13 6 7 1021.5 1020.8 0.0
28/01:00am 14.8 13.1 12.3 85 1.4 SSE 13 13 7 7 1021.8 1021.1 0.0
28/12:30am 15.1 13.3 12.1 82 1.6 SSE 13 13 7 7 1021.6 1020.9 0.0
28/12:00am 15.7 14.6 13.2 85 1.4 SSE 11 15 6 8 1021.4 1020.7 0.0
 
Date/Time
EST
Temp
°C
App
Temp
°C
Dew
Point
Rel
Hum
%
Delta-T
°C
Wind Press
QNH
hPa
Press
MSL
hPa
Rain
since 9 am
mm
Dir
 
Spd
km/h
Gust
km/h
Spd
kts
Gust
kts
27/11:30pm 15.3 13.6 12.4 83 1.6 SE 13 15 7 8 1021.1 1020.5 0.0
27/11:00pm 16.2 15.0 12.7 80 2.0 SE 11 13 6 7 1021.2 1020.6 0.0
27/10:30pm 17.1 15.8 12.4 74 2.6 ESE 11 13 6 7 1021.4 1020.7 0.0
27/10:00pm 18.2 17.2 13.5 74 2.7 E 11 15 6 8 1021.6 1020.9 0.0
27/09:30pm 18.8 17.6 13.9 73 2.8 ENE 13 15 7 8 1021.4 1020.7 0.0
27/09:00pm 18.9 18.0 13.7 72 3.0 ENE 11 13 6 7 1021.2 1020.6 0.0
27/08:30pm 19.2 17.9 13.6 70 3.2 E 13 13 7 7 1021.0 1020.4 0.0
27/08:00pm 19.8 18.3 13.0 65 3.9 E 13 17 7 9 1020.8 1020.1 0.0
27/07:30pm 20.2 18.3 11.9 59 4.7 E 13 17 7 9 1020.4 1019.7 0.0
27/07:00pm 20.4 18.8 11.6 57 4.9 ESE 11 13 6 7 1020.0 1019.3 0.0
27/06:30pm 20.7 19.0 11.1 54 5.3 ESE 11 13 6 7 1019.7 1019.0 0.0
27/06:00pm 21.8 19.6 10.9 50 6.1 ESE 13 15 7 8 1019.5 1018.8 0.0
27/05:30pm 24.1 21.8 11.8 46 7.0 ESE 15 20 8 11 1019.3 1018.6 0.0
27/05:00pm 25.8 22.9 12.3 43 7.8 ESE 19 24 10 13 1019.2 1018.5 0.0
27/04:30pm 26.3 23.2 11.6 40 8.5 ESE 19 24 10 13 1019.1 1018.4 0.0
27/04:00pm 26.7 24.9 12.0 40 8.5 SE 13 24 7 13 1018.9 1018.2 0.0
27/03:30pm 26.8 25.5 12.4 40 8.4 E 11 19 6 10 1018.9 1018.2 0.0
27/03:00pm 27.0 24.7 11.9 39 8.8 E 15 20 8 11 1018.8 1018.1 0.0
27/02:30pm 27.8 25.4 12.6 39 9.0 ESE 17 28 9 15 1019.2 1018.5 0.0
27/02:00pm 27.3 24.2 12.1 39 8.8 E 20 30 11 16 1019.3 1018.6 0.0
27/01:30pm 26.4 22.9 12.1 41 8.3 E 22 30 12 16 1019.6 1018.9 0.0
27/01:00pm 25.3 22.9 12.5 45 7.4 E 17 26 9 14 1020.2 1019.5 0.0
27/12:30pm 25.9 23.7 13.4 46 7.4 ESE 17 32 9 17 1020.7 1020.0 0.0
27/12:00pm 24.9 22.1 13.1 48 6.9 ESE 20 30 11 16 1021.6 1020.9 0.0
27/11:30am 24.2 21.6 13.7 52 6.2 ESE 20 28 11 15 1022.3 1021.6 0.0
27/11:00am 23.3 21.4 14.3 57 5.3 ESE 17 26 9 14 1022.8 1022.1 0.0
27/10:30am 22.7 20.9 14.5 60 4.9 E 17 24 9 13 1023.2 1022.5 0.0
27/10:00am 22.4 20.5 15.3 64 4.3 ESE 19 24 10 13 1023.6 1022.9 0.0
27/09:30am 21.2 18.6 14.8 67 3.8 E 22 30 12 16 1023.6 1022.9 0.0
27/09:00am 20.0 17.7 14.6 71 3.2 ESE 20 26 11 14 1023.6 1022.9 0.0
27/08:30am 19.1 17.0 14.6 75 2.6 SE 19 24 10 13 1023.6 1022.9 0.0
27/08:00am 17.4 15.0 13.9 80 2.0 SE 19 24 10 13 1023.4 1022.7 0.0
27/07:30am 15.7 15.9 14.6 93 0.6 ESE 7 11 4 6 1023.2 1022.5 0.0
27/07:00am 11.8 12.1 10.9 94 0.5 CALM 0 7 0 4 1022.9 1022.2 0.0
27/06:30am 11.2 11.2 9.9 92 0.7 CALM 0 0 0 0 1022.6 1021.9 0.0

Other Formats:

Comma delimited format used in spreadsheet applications
http://www.bom.gov.au/fwo/IDQ60801/IDQ60801.94397.axf

JavaScript Object Notation format (JSON) in row-major order
http://www.bom.gov.au/fwo/IDQ60801/IDQ60801.94397.json